Time;durP1;ratioP1;P1;durP2;ratioP2;P2;SDS_P1;SDS_P2;PMS_P1;PMS_P2;Temp;Humidity;BMP_temperature;BMP_pressure;BME280_temperature;BME280_humidity;BME280_pressure;Samples;Min_cycle;Max_cycle;Signal;HPM_P1;HPM_P2
2022/08/16 00:00:59;;;;;;;1.42;0.50;;;19.00;99.90;;;;;;5074646;28;20028;-79
2022/08/16 00:03:26;;;;;;;1.77;0.80;;;19.00;99.90;;;;;;5077353;28;20056;-78
2022/08/16 00:05:51;;;;;;;2.03;0.60;;;19.00;99.90;;;;;;5072532;28;20025;-79
2022/08/16 00:08:18;;;;;;;2.65;0.65;;;19.00;99.90;;;;;;5077948;28;20028;-79
2022/08/16 00:10:44;;;;;;;1.48;0.57;;;19.00;99.90;;;;;;5076177;28;20096;-79
2022/08/16 00:13:10;;;;;;;1.75;0.80;;;18.90;99.90;;;;;;5071115;28;20036;-79
2022/08/16 00:15:42;;;;;;;1.70;0.70;;;18.90;99.90;;;;;;5072455;28;20020;-79
2022/08/16 00:18:09;;;;;;;1.67;0.68;;;18.90;99.90;;;;;;5069111;28;20067;-81
2022/08/16 00:20:37;;;;;;;1.48;0.60;;;18.90;99.90;;;;;;5076386;28;20025;-79
2022/08/16 00:23:03;;;;;;;1.35;0.63;;;18.90;99.90;;;;;;5070900;28;20112;-79
2022/08/16 00:25:29;;;;;;;1.70;0.52;;;18.80;99.90;;;;;;5077018;28;20102;-78
2022/08/16 00:27:55;;;;;;;1.23;0.45;;;18.80;99.90;;;;;;5072747;28;20028;-79
2022/08/16 00:30:21;;;;;;;2.42;0.70;;;18.70;99.90;;;;;;5070957;28;20028;-79
2022/08/16 00:32:51;;;;;;;1.75;0.60;;;18.70;99.90;;;;;;5074320;28;20017;-79
2022/08/16 00:35:21;;;;;;;2.38;0.77;;;18.70;99.90;;;;;;5071825;28;20020;-82
2022/08/16 00:37:47;;;;;;;1.08;0.50;;;18.60;99.90;;;;;;5077275;28;20119;-79
2022/08/16 00:40:47;;;;;;;2.00;0.63;;;18.60;99.90;;;;;;5075185;28;20085;-79
2022/08/16 00:43:16;;;;;;;2.58;0.80;;;18.50;99.90;;;;;;5075922;28;20044;-79
2022/08/16 00:46:06;;;;;;;2.25;0.50;;;18.50;99.90;;;;;;5074934;28;20025;-79
2022/08/16 00:48:32;;;;;;;2.13;0.70;;;18.50;99.90;;;;;;5090586;28;20021;-78
2022/08/16 00:51:00;;;;;;;1.05;0.60;;;18.50;99.90;;;;;;5078150;28;20017;-79
2022/08/16 00:53:26;;;;;;;4.03;0.88;;;18.50;99.90;;;;;;5077620;28;20046;-79
2022/08/16 00:55:55;;;;;;;2.60;0.65;;;18.40;99.90;;;;;;5079428;28;20013;-79
2022/08/16 00:58:23;;;;;;;2.00;0.85;;;18.40;99.90;;;;;;5079518;28;20106;-79
2022/08/16 01:00:49;;;;;;;1.65;0.70;;;18.30;99.90;;;;;;5077637;28;20021;-79
2022/08/16 01:03:17;;;;;;;1.52;0.70;;;18.30;99.90;;;;;;5076005;28;20084;-79
2022/08/16 01:05:44;;;;;;;2.33;0.70;;;18.30;99.90;;;;;;5073701;28;20100;-79
2022/08/16 01:08:13;;;;;;;1.50;0.52;;;18.20;99.90;;;;;;5076904;28;20025;-79
2022/08/16 01:10:40;;;;;;;1.55;0.70;;;18.10;99.90;;;;;;5076437;28;20481;-79
2022/08/16 01:13:08;;;;;;;1.60;0.70;;;18.10;99.90;;;;;;5078696;28;20103;-78
2022/08/16 01:15:40;;;;;;;1.85;0.80;;;18.10;99.90;;;;;;5076522;28;20024;-79
2022/08/16 01:18:08;;;;;;;1.98;0.80;;;18.10;99.90;;;;;;5072507;28;20033;-79
2022/08/16 01:20:41;;;;;;;1.67;0.88;;;18.10;99.90;;;;;;5073385;28;20031;-79
2022/08/16 01:23:13;;;;;;;3.20;0.75;;;18.10;99.90;;;;;;5088123;28;20024;-79
2022/08/16 01:25:44;;;;;;;2.65;0.80;;;18.10;99.90;;;;;;5069918;28;20077;-78
2022/08/16 01:28:15;;;;;;;2.80;1.00;;;18.10;99.90;;;;;;5075285;28;20032;-79
2022/08/16 01:30:44;;;;;;;1.58;0.73;;;18.10;99.90;;;;;;5077008;28;20029;-79
2022/08/16 01:33:10;;;;;;;2.83;0.90;;;18.10;99.90;;;;;;5077372;28;20052;-79
2022/08/16 01:35:58;;;;;;;2.05;0.80;;;18.10;99.90;;;;;;5068917;28;20028;-79
2022/08/16 01:38:44;;;;;;;1.08;0.60;;;18.10;99.90;;;;;;5070582;28;20025;-79
2022/08/16 01:41:17;;;;;;;2.00;0.73;;;18.10;99.90;;;;;;5066233;28;20024;-79
2022/08/16 01:43:44;;;;;;;2.40;0.90;;;18.00;99.90;;;;;;5069702;28;20070;-79
2022/08/16 01:46:29;;;;;;;2.35;0.70;;;18.00;99.90;;;;;;5071202;28;20100;-79
2022/08/16 01:49:22;;;;;;;2.17;0.73;;;17.90;99.90;;;;;;5074763;28;20052;-79
2022/08/16 01:51:59;;;;;;;1.45;0.55;;;17.90;99.90;;;;;;5061001;28;20082;-79
2022/08/16 01:54:24;;;;;;;1.08;0.60;;;17.90;99.90;;;;;;5072910;28;20025;-79
2022/08/16 01:56:50;;;;;;;2.20;0.75;;;17.90;99.90;;;;;;5073455;28;20044;-80
2022/08/16 01:59:17;;;;;;;2.33;0.80;;;18.00;99.90;;;;;;5065271;28;20028;-79
2022/08/16 02:01:44;;;;;;;2.63;0.60;;;18.00;99.90;;;;;;5074673;28;20495;-80
2022/08/16 02:04:10;;;;;;;2.13;0.95;;;18.00;99.90;;;;;;5073015;28;20032;-80
2022/08/16 02:06:36;;;;;;;2.40;0.77;;;18.00;99.90;;;;;;5067619;28;20021;-79
2022/08/16 02:09:04;;;;;;;3.15;0.88;;;18.00;99.90;;;;;;5068755;28;20043;-79
2022/08/16 02:11:29;;;;;;;1.88;0.70;;;18.00;99.90;;;;;;5069701;28;20036;-78
2022/08/16 02:13:55;;;;;;;3.95;1.20;;;18.00;99.90;;;;;;5069826;28;20096;-79
2022/08/16 02:16:21;;;;;;;3.88;0.75;;;18.00;99.90;;;;;;5063829;28;20027;-78
2022/08/16 02:18:47;;;;;;;2.83;1.48;;;18.00;99.90;;;;;;5066425;28;20517;-79
2022/08/16 02:21:13;;;;;;;1.92;0.80;;;18.00;99.90;;;;;;5067904;28;20025;-79
2022/08/16 02:23:40;;;;;;;2.50;1.42;;;18.00;99.90;;;;;;5075793;28;20020;-80
2022/08/16 02:26:06;;;;;;;2.03;0.80;;;18.10;99.90;;;;;;5069078;28;20014;-78
2022/08/16 02:28:33;;;;;;;2.53;0.82;;;18.10;99.90;;;;;;5092116;28;20077;-79
2022/08/16 02:31:03;;;;;;;3.00;0.85;;;18.10;99.90;;;;;;5076554;28;20021;-78
2022/08/16 02:33:30;;;;;;;1.45;0.73;;;18.20;99.90;;;;;;5074087;28;20017;-80
2022/08/16 02:35:56;;;;;;;2.10;1.00;;;18.20;99.90;;;;;;5069158;28;20025;-80
2022/08/16 02:38:21;;;;;;;1.88;0.80;;;18.10;99.90;;;;;;5073203;28;20020;-79
2022/08/16 02:40:47;;;;;;;2.65;0.90;;;18.10;99.90;;;;;;5076660;28;20043;-80
2022/08/16 02:43:13;;;;;;;2.60;0.68;;;18.10;99.90;;;;;;5073636;28;20029;-79
2022/08/16 02:45:39;;;;;;;2.60;1.00;;;18.10;99.90;;;;;;5074804;28;20071;-80
2022/08/16 02:48:05;;;;;;;2.08;0.80;;;18.10;99.90;;;;;;5072012;28;20032;-80
2022/08/16 02:50:31;;;;;;;1.90;0.80;;;18.00;99.90;;;;;;5069573;28;20050;-80
2022/08/16 02:52:56;;;;;;;1.75;0.85;;;17.90;99.90;;;;;;5073511;28;20029;-80
2022/08/16 02:55:22;;;;;;;2.60;0.80;;;17.90;99.90;;;;;;5089782;28;20027;-80
2022/08/16 02:57:48;;;;;;;1.90;0.85;;;17.80;99.90;;;;;;5088568;28;20085;-79
2022/08/16 03:00:15;;;;;;;3.35;0.85;;;17.80;99.90;;;;;;5087476;28;20029;-79
2022/08/16 03:02:43;;;;;;;3.25;1.88;;;17.80;99.90;;;;;;5077717;28;20104;-80
2022/08/16 03:05:11;;;;;;;2.78;1.20;;;17.80;99.90;;;;;;5069631;28;20013;-80
2022/08/16 03:07:37;;;;;;;3.58;1.13;;;17.70;99.90;;;;;;5071893;28;20012;-80
2022/08/16 03:10:05;;;;;;;3.42;1.30;;;17.70;99.90;;;;;;5077073;28;20391;-81
2022/08/16 03:12:30;;;;;;;1.73;0.73;;;17.70;99.90;;;;;;5080467;28;20012;-79
2022/08/16 03:14:56;;;;;;;2.17;0.98;;;17.70;99.90;;;;;;5076202;28;20017;-79
2022/08/16 03:17:22;;;;;;;2.08;0.88;;;17.70;99.90;;;;;;5064247;28;20021;-77
2022/08/16 03:19:47;;;;;;;2.28;1.10;;;17.70;99.90;;;;;;5079804;28;20017;-76
2022/08/16 03:22:13;;;;;;;2.10;1.05;;;17.70;99.90;;;;;;5073273;28;20020;-78
2022/08/16 03:24:38;;;;;;;1.98;0.85;;;17.70;99.90;;;;;;5075326;28;20028;-77
2022/08/16 03:27:04;;;;;;;2.20;0.88;;;17.70;99.90;;;;;;5075425;28;20379;-77
2022/08/16 03:29:31;;;;;;;1.73;0.85;;;17.80;99.90;;;;;;5065469;28;20035;-76
2022/08/16 03:31:58;;;;;;;2.75;0.90;;;17.80;99.90;;;;;;5074695;28;20017;-77
2022/08/16 03:34:24;;;;;;;2.17;0.65;;;17.80;99.90;;;;;;5078377;28;20028;-76
2022/08/16 03:36:49;;;;;;;1.70;0.90;;;17.80;99.90;;;;;;5076126;28;20073;-78
2022/08/16 03:39:15;;;;;;;2.40;0.95;;;17.80;99.90;;;;;;5073069;28;20050;-77
2022/08/16 03:41:40;;;;;;;3.35;1.10;;;17.80;99.90;;;;;;5070867;28;20103;-77
2022/08/16 03:44:06;;;;;;;2.25;0.80;;;17.70;99.90;;;;;;5074846;28;20032;-79
2022/08/16 03:46:33;;;;;;;1.83;0.80;;;17.70;99.90;;;;;;5075881;28;20025;-77
2022/08/16 03:48:59;;;;;;;2.38;1.20;;;17.70;99.90;;;;;;5071679;28;20094;-77
2022/08/16 03:51:25;;;;;;;2.28;0.95;;;17.70;99.90;;;;;;5074102;28;20025;-79
2022/08/16 03:53:50;;;;;;;2.65;1.10;;;17.70;99.90;;;;;;5083796;28;20549;-79
2022/08/16 03:56:16;;;;;;;2.50;0.95;;;17.70;99.90;;;;;;5074575;28;20123;-80
2022/08/16 03:58:42;;;;;;;4.07;1.23;;;17.70;99.90;;;;;;5068807;28;20039;-79
2022/08/16 04:01:07;;;;;;;2.88;1.23;;;17.70;99.90;;;;;;5072314;28;20508;-79
2022/08/16 04:03:33;;;;;;;2.08;0.80;;;17.70;99.90;;;;;;5064124;28;20108;-80
2022/08/16 04:05:59;;;;;;;2.42;0.98;;;17.60;99.90;;;;;;5077751;28;20492;-79
2022/08/16 04:08:25;;;;;;;4.30;1.60;;;17.60;99.90;;;;;;5079631;28;20111;-79
2022/08/16 04:10:52;;;;;;;2.53;1.10;;;17.60;99.90;;;;;;5066148;28;20104;-79
2022/08/16 04:13:19;;;;;;;1.95;0.90;;;17.70;99.90;;;;;;5071078;28;20032;-79
2022/08/16 04:15:44;;;;;;;3.45;1.20;;;17.60;99.90;;;;;;5074939;28;20430;-79
2022/08/16 04:18:10;;;;;;;2.10;0.90;;;17.60;99.90;;;;;;5066833;28;20044;-79
2022/08/16 04:20:37;;;;;;;3.75;1.00;;;17.60;99.90;;;;;;5071224;28;20044;-79
2022/08/16 04:23:04;;;;;;;3.00;1.13;;;17.50;99.90;;;;;;5073678;28;20601;-79
2022/08/16 04:25:29;;;;;;;4.30;1.30;;;17.50;99.90;;;;;;5073519;28;20088;-79
2022/08/16 04:27:55;;;;;;;3.72;1.20;;;17.50;99.90;;;;;;5069242;28;20105;-79
2022/08/16 04:30:22;;;;;;;2.90;1.17;;;17.50;99.90;;;;;;5069433;28;20020;-80
2022/08/16 04:32:47;;;;;;;2.53;1.20;;;17.50;99.90;;;;;;5074005;28;20020;-78
2022/08/16 04:35:18;;;;;;;2.63;1.00;;;17.40;99.90;;;;;;5070486;28;20123;-80
2022/08/16 04:37:45;;;;;;;2.30;1.40;;;17.50;99.90;;;;;;5074282;28;20067;-79
2022/08/16 04:40:11;;;;;;;3.17;1.13;;;17.50;99.90;;;;;;5067853;28;20025;-79
2022/08/16 04:42:41;;;;;;;2.92;1.33;;;17.50;99.90;;;;;;5068513;28;20028;-80
2022/08/16 04:45:09;;;;;;;2.97;1.38;;;17.50;99.90;;;;;;5071460;28;20024;-79
2022/08/16 04:47:35;;;;;;;3.35;1.23;;;17.50;99.90;;;;;;5077826;28;20025;-80
2022/08/16 04:50:14;;;;;;;2.95;1.10;;;17.50;99.90;;;;;;5065941;28;20020;-79
2022/08/16 04:52:41;;;;;;;2.65;1.17;;;17.40;99.90;;;;;;5075874;28;20806;-79
2022/08/16 04:55:16;;;;;;;2.28;1.10;;;17.30;99.90;;;;;;5077406;28;20499;-79
2022/08/16 04:57:43;;;;;;;2.83;1.08;;;17.40;99.90;;;;;;5073912;28;20016;-79
2022/08/16 05:00:16;;;;;;;4.07;1.58;;;17.50;99.90;;;;;;5064462;28;20025;-79
2022/08/16 05:02:41;;;;;;;3.70;1.35;;;17.60;99.90;;;;;;5069949;28;20024;-80
2022/08/16 05:05:09;;;;;;;2.60;1.15;;;17.60;99.90;;;;;;5071011;28;20441;-80
2022/08/16 05:07:36;;;;;;;3.63;1.10;;;17.80;99.90;;;;;;5074051;28;20486;-80
2022/08/16 05:10:05;;;;;;;2.47;0.93;;;17.80;99.90;;;;;;5066011;28;20024;-80
2022/08/16 05:12:30;;;;;;;3.35;1.10;;;17.90;99.90;;;;;;5092765;22;20048;-82
2022/08/16 05:14:56;;;;;;;3.58;1.17;;;17.90;99.90;;;;;;5083773;28;20032;-83
2022/08/16 05:17:22;;;;;;;5.22;1.17;;;17.80;99.90;;;;;;5071710;28;20238;-82
2022/08/16 05:19:48;;;;;;;4.25;1.08;;;17.80;99.90;;;;;;5069216;28;20116;-83
2022/08/16 05:22:14;;;;;;;3.45;1.52;;;17.90;99.90;;;;;;5075645;28;20033;-82
2022/08/16 05:24:40;;;;;;;2.03;1.00;;;18.00;99.90;;;;;;5071209;28;20032;-81
2022/08/16 05:27:06;;;;;;;5.25;1.60;;;18.00;99.90;;;;;;5073803;28;20110;-82
2022/08/16 05:29:32;;;;;;;2.53;1.10;;;18.10;99.90;;;;;;5075360;28;20024;-82
2022/08/16 05:31:58;;;;;;;3.00;1.25;;;18.20;99.90;;;;;;5077334;28;20026;-82
2022/08/16 05:34:23;;;;;;;4.10;1.08;;;18.30;99.90;;;;;;5075954;28;20047;-83
2022/08/16 05:36:51;;;;;;;3.42;1.15;;;18.40;99.90;;;;;;5070005;28;20082;-82
2022/08/16 05:39:18;;;;;;;3.28;1.40;;;18.40;99.90;;;;;;5077574;28;20048;-82
2022/08/16 05:41:43;;;;;;;2.72;0.98;;;18.40;99.90;;;;;;5071019;28;20056;-82
2022/08/16 05:44:09;;;;;;;4.35;1.13;;;18.50;99.90;;;;;;5072820;28;20377;-82
2022/08/16 05:46:35;;;;;;;2.53;1.30;;;18.60;99.90;;;;;;5069197;28;20027;-83
2022/08/16 05:49:01;;;;;;;3.55;0.70;;;18.70;99.90;;;;;;5074629;28;20392;-83
2022/08/16 05:51:27;;;;;;;2.70;1.02;;;18.80;99.90;;;;;;5070727;28;20099;-83
2022/08/16 05:53:52;;;;;;;2.33;1.10;;;18.90;99.90;;;;;;5074236;28;20052;-83
2022/08/16 05:56:18;;;;;;;2.95;1.20;;;18.80;99.90;;;;;;5075745;28;20028;-83
2022/08/16 05:58:44;;;;;;;2.38;0.85;;;18.70;99.90;;;;;;5073759;28;20476;-83
2022/08/16 06:01:09;;;;;;;6.07;1.42;;;18.70;99.90;;;;;;5072470;28;20032;-83
2022/08/16 06:03:36;;;;;;;3.63;1.30;;;18.70;99.90;;;;;;5071592;28;20045;-83
2022/08/16 06:06:01;;;;;;;3.28;1.30;;;18.80;99.90;;;;;;5070645;28;20024;-83
2022/08/16 06:08:27;;;;;;;3.03;1.60;;;18.70;99.90;;;;;;5074726;28;20020;-83
2022/08/16 06:10:53;;;;;;;2.92;0.88;;;18.60;99.90;;;;;;5075435;28;20029;-83
2022/08/16 06:13:19;;;;;;;2.95;1.20;;;18.60;99.90;;;;;;5074640;28;20139;-83
2022/08/16 06:15:45;;;;;;;3.17;1.40;;;18.60;99.90;;;;;;5073786;28;20036;-83
2022/08/16 06:18:10;;;;;;;2.92;1.27;;;18.60;99.90;;;;;;5076874;28;20470;-83
2022/08/16 06:20:36;;;;;;;4.75;1.10;;;18.60;99.90;;;;;;5078778;28;20104;-83
2022/08/16 06:23:02;;;;;;;2.47;1.25;;;18.50;99.90;;;;;;5070373;28;20035;-82
2022/08/16 06:25:28;;;;;;;2.75;1.30;;;18.60;99.90;;;;;;5080648;28;20016;-82
2022/08/16 06:27:54;;;;;;;2.30;1.02;;;18.70;99.90;;;;;;5073211;28;20035;-82
2022/08/16 06:30:20;;;;;;;4.15;1.30;;;18.80;99.90;;;;;;5088385;28;20025;-83
2022/08/16 06:32:46;;;;;;;2.80;0.98;;;18.70;99.90;;;;;;5075063;28;20111;-83
2022/08/16 06:35:14;;;;;;;3.83;1.40;;;18.70;99.90;;;;;;5075610;28;20032;-82
2022/08/16 06:37:41;;;;;;;3.83;1.75;;;18.90;99.90;;;;;;5078437;28;20097;-83
2022/08/16 06:40:09;;;;;;;3.95;1.10;;;18.90;99.90;;;;;;5070870;28;20016;-82
2022/08/16 06:42:35;;;;;;;2.78;1.35;;;19.10;99.90;;;;;;5074346;28;20090;-83
2022/08/16 06:45:03;;;;;;;3.78;1.10;;;19.20;99.90;;;;;;5074558;28;20020;-84
2022/08/16 06:47:28;;;;;;;3.58;1.13;;;19.40;99.90;;;;;;5077215;28;20023;-84
2022/08/16 06:49:54;;;;;;;2.97;1.25;;;19.40;99.90;;;;;;5075177;28;20025;-83
2022/08/16 06:52:20;;;;;;;3.25;1.20;;;19.50;99.90;;;;;;5072542;28;20039;-84
2022/08/16 06:54:47;;;;;;;3.72;1.55;;;19.60;99.90;;;;;;5074318;28;20044;-83
2022/08/16 06:57:15;;;;;;;4.35;1.20;;;19.60;99.90;;;;;;5074154;28;20054;-84
2022/08/16 06:59:41;;;;;;;3.60;1.45;;;19.80;99.90;;;;;;5074745;28;20032;-84
2022/08/16 07:02:07;;;;;;;5.07;1.30;;;19.90;99.90;;;;;;5077309;28;20012;-84
2022/08/16 07:04:34;;;;;;;3.90;1.40;;;20.00;99.90;;;;;;5075837;28;20052;-83
2022/08/16 07:07:00;;;;;;;4.43;1.77;;;20.10;99.90;;;;;;5073488;28;20476;-83
2022/08/16 07:09:26;;;;;;;2.40;0.95;;;20.30;99.90;;;;;;5077235;28;20025;-83
2022/08/16 07:11:52;;;;;;;3.33;1.25;;;20.60;99.90;;;;;;5076165;28;20534;-83
2022/08/16 07:14:17;;;;;;;4.85;1.05;;;20.70;99.90;;;;;;5079918;28;20032;-84
2022/08/16 07:16:44;;;;;;;3.33;1.60;;;20.80;99.90;;;;;;5079942;28;20028;-84
2022/08/16 07:19:10;;;;;;;3.25;1.30;;;20.90;99.90;;;;;;5078835;28;20071;-83
2022/08/16 07:21:46;;;;;;;4.30;1.20;;;21.10;99.90;;;;;;5077887;28;20025;-83
2022/08/16 07:24:13;;;;;;;2.70;1.00;;;21.30;99.90;;;;;;5076295;28;20029;-84
2022/08/16 07:26:39;;;;;;;3.63;1.17;;;21.40;99.90;;;;;;5072415;28;20052;-83
2022/08/16 07:29:04;;;;;;;2.65;1.10;;;21.50;99.90;;;;;;5076456;28;20036;-84
2022/08/16 07:31:31;;;;;;;2.65;1.45;;;21.70;99.90;;;;;;5070971;28;20047;-84
2022/08/16 07:33:56;;;;;;;2.92;1.52;;;21.90;99.90;;;;;;5079186;28;20044;-84
2022/08/16 07:36:22;;;;;;;2.63;1.17;;;22.30;99.90;;;;;;5074987;28;20021;-84
2022/08/16 07:38:49;;;;;;;2.83;1.40;;;22.30;99.90;;;;;;5076558;28;20489;-83
2022/08/16 07:41:15;;;;;;;2.53;1.20;;;22.50;99.90;;;;;;5074179;28;20027;-84
2022/08/16 07:43:42;;;;;;;3.10;1.35;;;22.60;99.90;;;;;;5052956;28;20111;-84
2022/08/16 07:46:08;;;;;;;2.92;1.10;;;22.70;99.90;;;;;;5074246;28;20096;-83
2022/08/16 07:48:34;;;;;;;3.38;1.33;;;22.70;99.90;;;;;;5072912;28;20043;-84
2022/08/16 07:51:02;;;;;;;2.35;1.42;;;22.70;99.90;;;;;;5070301;28;20401;-83
2022/08/16 07:53:30;;;;;;;2.75;1.27;;;22.90;99.90;;;;;;5073676;28;20062;-83
2022/08/16 07:55:58;;;;;;;4.65;1.45;;;22.90;99.90;;;;;;5073543;28;20028;-83
2022/08/16 07:58:27;;;;;;;2.72;1.23;;;23.00;99.90;;;;;;5070341;28;20060;-84
2022/08/16 08:00:53;;;;;;;2.60;1.30;;;23.10;99.90;;;;;;5075744;28;20043;-84
2022/08/16 08:03:18;;;;;;;2.58;1.20;;;23.30;99.90;;;;;;5076363;28;20104;-84
2022/08/16 08:05:44;;;;;;;2.95;1.20;;;23.20;99.90;;;;;;5073573;28;20036;-84
2022/08/16 08:08:10;;;;;;;2.40;1.27;;;23.40;99.90;;;;;;5076647;28;20495;-84
2022/08/16 08:10:36;;;;;;;2.50;1.00;;;23.60;99.90;;;;;;5067462;28;20035;-85
2022/08/16 08:13:02;;;;;;;1.83;0.90;;;23.90;99.90;;;;;;5072038;28;20440;-84
2022/08/16 08:15:30;;;;;;;3.08;1.35;;;24.00;99.90;;;;;;5071448;28;20376;-83
2022/08/16 08:17:56;;;;;;;2.58;1.20;;;24.40;99.50;;;;;;5070276;28;20626;-84
2022/08/16 08:20:26;;;;;;;2.83;1.38;;;24.80;99.30;;;;;;5079760;28;20047;-84
2022/08/16 08:22:53;;;;;;;2.08;0.95;;;24.90;98.50;;;;;;5074354;28;20380;-83
2022/08/16 08:25:19;;;;;;;3.33;1.38;;;25.00;98.40;;;;;;5082196;28;20056;-84
2022/08/16 08:27:46;;;;;;;2.40;0.95;;;24.90;98.20;;;;;;5076207;28;20545;-83
2022/08/16 08:30:13;;;;;;;2.78;1.10;;;25.10;97.70;;;;;;5076964;28;20092;-83
2022/08/16 08:32:39;;;;;;;2.17;1.00;;;25.20;97.20;;;;;;5069824;28;20032;-83
2022/08/16 08:35:06;;;;;;;2.65;1.30;;;25.20;96.70;;;;;;5068678;28;20025;-83
2022/08/16 08:37:34;;;;;;;3.35;1.55;;;24.70;96.40;;;;;;5074103;28;20020;-83
2022/08/16 08:40:00;;;;;;;4.25;1.27;;;24.30;96.40;;;;;;5081941;28;20024;-82
2022/08/16 08:42:27;;;;;;;2.28;1.10;;;24.30;96.80;;;;;;5071901;28;20017;-83
2022/08/16 08:44:53;;;;;;;3.80;1.08;;;24.10;96.50;;;;;;5071109;28;20016;-83
2022/08/16 08:47:19;;;;;;;3.15;1.30;;;24.10;96.90;;;;;;5070751;28;20028;-83
2022/08/16 08:49:45;;;;;;;3.40;1.17;;;23.90;97.00;;;;;;5068473;28;20051;-83
2022/08/16 08:52:11;;;;;;;2.30;1.10;;;23.90;97.10;;;;;;5070340;28;20528;-84
2022/08/16 08:54:37;;;;;;;3.17;1.70;;;23.90;97.20;;;;;;5070792;28;20028;-83
2022/08/16 08:57:04;;;;;;;3.33;1.48;;;23.90;97.40;;;;;;5071752;28;20029;-84
2022/08/16 08:59:31;;;;;;;2.58;1.30;;;24.20;97.20;;;;;;5074236;28;20500;-84
2022/08/16 09:01:57;;;;;;;2.08;1.08;;;24.30;96.30;;;;;;5073063;28;20473;-83
2022/08/16 09:04:25;;;;;;;3.67;1.23;;;24.60;96.50;;;;;;5077332;28;20043;-83
2022/08/16 09:06:52;;;;;;;2.35;1.20;;;25.00;96.00;;;;;;5072140;28;20099;-84
2022/08/16 09:09:18;;;;;;;2.40;1.15;;;25.30;95.00;;;;;;5077581;28;20092;-84
2022/08/16 09:11:45;;;;;;;2.80;1.45;;;25.50;94.70;;;;;;5075051;28;20055;-83
2022/08/16 09:14:11;;;;;;;3.15;1.23;;;25.70;94.80;;;;;;5075225;28;20117;-83
2022/08/16 09:16:37;;;;;;;3.38;1.70;;;26.00;94.10;;;;;;5068783;28;20059;-82
2022/08/16 09:19:03;;;;;;;3.50;1.38;;;25.90;95.10;;;;;;5073657;28;20043;-83
2022/08/16 09:21:29;;;;;;;2.55;1.17;;;26.30;94.40;;;;;;5065677;28;20025;-83
2022/08/16 09:23:54;;;;;;;1.85;1.13;;;26.50;93.90;;;;;;5074448;28;20024;-82
2022/08/16 09:26:20;;;;;;;2.38;1.13;;;26.60;93.40;;;;;;5074254;28;20033;-83
2022/08/16 09:28:47;;;;;;;2.80;1.15;;;26.50;93.40;;;;;;5077339;28;20024;-83
2022/08/16 09:31:13;;;;;;;3.03;1.23;;;26.10;94.00;;;;;;5071125;28;20032;-82
2022/08/16 09:33:40;;;;;;;2.17;1.08;;;25.60;94.00;;;;;;5073886;28;20046;-83
2022/08/16 09:36:07;;;;;;;2.65;1.30;;;25.30;95.20;;;;;;5067793;28;20711;-83
2022/08/16 09:38:34;;;;;;;3.72;1.50;;;25.10;95.50;;;;;;5073071;28;20512;-83
2022/08/16 09:41:02;;;;;;;2.58;1.42;;;24.80;96.10;;;;;;5074433;28;20128;-83
2022/08/16 09:43:28;;;;;;;2.60;1.10;;;24.60;96.30;;;;;;5072547;28;20029;-82
2022/08/16 09:45:54;;;;;;;2.70;1.38;;;24.50;96.10;;;;;;5074319;28;20077;-83
2022/08/16 09:48:19;;;;;;;3.05;1.30;;;24.30;96.10;;;;;;5075503;28;20037;-83
2022/08/16 09:50:45;;;;;;;3.03;1.50;;;24.30;96.30;;;;;;5071245;28;20088;-83
2022/08/16 09:53:21;;;;;;;3.05;1.20;;;24.70;95.30;;;;;;5075390;28;20028;-83
2022/08/16 09:55:51;;;;;;;2.72;1.52;;;25.10;94.80;;;;;;5069385;28;20024;-84
2022/08/16 09:58:22;;;;;;;3.25;1.45;;;25.40;94.90;;;;;;5078721;28;20028;-84
2022/08/16 10:00:49;;;;;;;4.40;1.50;;;25.90;94.90;;;;;;5079203;28;20024;-85
2022/08/16 10:03:17;;;;;;;2.40;1.10;;;26.10;94.50;;;;;;5072309;28;20021;-85
2022/08/16 10:05:43;;;;;;;2.75;1.40;;;26.30;94.00;;;;;;5074140;28;20115;-85
2022/08/16 10:08:09;;;;;;;2.00;1.30;;;26.60;93.20;;;;;;5072620;28;20051;-84
2022/08/16 10:10:35;;;;;;;2.58;1.02;;;27.10;92.50;;;;;;5075341;28;20409;-85
2022/08/16 10:13:11;;;;;;;3.78;1.13;;;27.40;92.20;;;;;;5071958;28;20032;-84
2022/08/16 10:15:39;;;;;;;5.07;1.50;;;27.30;91.70;;;;;;5074243;28;20016;-84
2022/08/16 10:18:08;;;;;;;3.28;1.30;;;27.20;91.80;;;;;;5082045;28;20052;-84
2022/08/16 10:20:44;;;;;;;3.28;1.30;;;26.80;91.10;;;;;;5075577;28;20048;-84
2022/08/16 10:23:14;;;;;;;2.15;0.90;;;26.50;91.60;;;;;;5070286;28;20024;-85
2022/08/16 10:25:42;;;;;;;3.58;1.52;;;27.10;91.90;;;;;;5065289;28;20393;-84
2022/08/16 10:28:09;;;;;;;3.95;1.10;;;26.90;91.00;;;;;;5066366;28;20044;-84
2022/08/16 10:30:36;;;;;;;3.72;1.55;;;26.60;91.30;;;;;;5071842;28;20073;-83
2022/08/16 10:33:03;;;;;;;3.05;1.40;;;26.40;91.50;;;;;;5069658;28;20028;-84
2022/08/16 10:35:29;;;;;;;1.33;0.60;;;26.20;91.70;;;;;;5069614;28;20477;-84
2022/08/16 10:37:56;;;;;;;4.13;1.20;;;26.30;91.70;;;;;;5070794;28;20028;-83
2022/08/16 10:40:21;;;;;;;2.08;0.93;;;26.50;91.60;;;;;;5074924;28;20025;-84
2022/08/16 10:42:48;;;;;;;2.05;0.90;;;26.70;91.50;;;;;;5069250;28;20492;-84
2022/08/16 10:45:15;;;;;;;2.15;1.00;;;27.20;91.40;;;;;;5064249;28;20028;-83
2022/08/16 10:47:40;;;;;;;2.13;1.02;;;27.50;91.20;;;;;;5069434;28;20031;-83
2022/08/16 10:50:07;;;;;;;2.47;1.10;;;27.20;90.90;;;;;;5068017;28;20025;-82
2022/08/16 10:52:34;;;;;;;2.28;1.17;;;26.90;90.50;;;;;;5070704;28;20021;-82
2022/08/16 10:55:01;;;;;;;1.77;0.98;;;26.90;90.60;;;;;;5071932;28;20079;-83
2022/08/16 10:57:27;;;;;;;2.83;1.00;;;26.50;90.80;;;;;;5070810;28;20112;-83
2022/08/16 10:59:54;;;;;;;2.33;1.00;;;26.40;91.20;;;;;;5071607;28;20028;-83
2022/08/16 11:02:20;;;;;;;4.63;0.88;;;26.40;91.30;;;;;;5073311;28;20063;-83
2022/08/16 11:04:47;;;;;;;3.00;1.10;;;26.60;90.90;;;;;;5072033;28;20017;-83
2022/08/16 11:07:12;;;;;;;1.83;1.05;;;27.00;90.40;;;;;;5073301;28;20043;-83
2022/08/16 11:09:39;;;;;;;2.35;1.00;;;27.20;89.40;;;;;;5073679;28;20404;-83
2022/08/16 11:12:05;;;;;;;3.60;1.33;;;27.40;89.40;;;;;;5073173;28;20025;-83
2022/08/16 11:14:32;;;;;;;2.15;0.98;;;27.80;88.10;;;;;;5078185;28;20057;-84
2022/08/16 11:17:00;;;;;;;1.85;1.00;;;27.60;88.40;;;;;;5070796;28;20032;-83
2022/08/16 11:19:28;;;;;;;2.20;1.00;;;27.90;87.70;;;;;;5071837;28;20017;-83
2022/08/16 11:21:54;;;;;;;1.70;0.95;;;28.20;86.60;;;;;;5072269;28;20024;-84
2022/08/16 11:24:21;;;;;;;4.07;1.20;;;28.20;86.10;;;;;;5075350;28;20080;-84
2022/08/16 11:26:47;;;;;;;1.58;0.95;;;28.40;86.90;;;;;;5066699;28;20021;-83
2022/08/16 11:29:12;;;;;;;3.60;1.30;;;28.60;85.60;;;;;;5067506;28;20029;-83
2022/08/16 11:31:38;;;;;;;2.15;1.10;;;29.00;85.20;;;;;;5073273;28;20029;-83
2022/08/16 11:34:04;;;;;;;2.30;0.90;;;29.30;82.30;;;;;;5067525;28;20032;-82
2022/08/16 11:36:31;;;;;;;2.90;1.00;;;29.70;82.40;;;;;;5068772;28;20032;-84
2022/08/16 11:38:58;;;;;;;2.30;1.27;;;29.60;82.00;;;;;;5075105;28;20085;-84
2022/08/16 11:41:27;;;;;;;2.75;0.70;;;29.70;81.70;;;;;;5077435;28;20047;-83
2022/08/16 11:43:53;;;;;;;2.70;1.00;;;29.90;80.50;;;;;;5082297;28;20023;-83
2022/08/16 11:46:19;;;;;;;1.85;0.90;;;30.00;79.30;;;;;;5077217;28;20079;-83
2022/08/16 11:48:47;;;;;;;2.85;1.10;;;30.10;79.20;;;;;;5076345;28;20063;-83
2022/08/16 11:51:13;;;;;;;1.60;0.80;;;30.20;79.30;;;;;;5072790;28;20040;-83
2022/08/16 11:53:39;;;;;;;2.28;0.70;;;30.10;78.60;;;;;;5080580;28;20069;-83
2022/08/16 11:56:05;;;;;;;1.45;0.80;;;30.70;77.50;;;;;;5074808;28;20071;-83
2022/08/16 11:58:38;;;;;;;1.55;0.82;;;31.00;76.70;;;;;;5076843;28;20025;-83
2022/08/16 12:01:06;;;;;;;2.60;1.15;;;31.40;75.90;;;;;;5078967;28;20020;-83
2022/08/16 12:03:32;;;;;;;2.00;0.90;;;31.00;73.70;;;;;;5071210;28;20017;-84
2022/08/16 12:06:02;;;;;;;1.40;0.73;;;30.70;74.70;;;;;;5071753;28;20111;-83
2022/08/16 12:08:31;;;;;;;1.75;0.85;;;30.40;74.50;;;;;;5095194;28;20055;-83
2022/08/16 12:10:58;;;;;;;1.77;0.80;;;30.30;75.00;;;;;;5075564;28;20127;-83
2022/08/16 12:13:25;;;;;;;1.60;0.82;;;30.90;75.90;;;;;;5076365;28;20035;-83
2022/08/16 12:15:51;;;;;;;1.13;0.70;;;31.00;74.00;;;;;;5075321;28;20017;-83
2022/08/16 12:18:17;;;;;;;2.22;0.80;;;30.60;73.90;;;;;;5081804;28;20029;-82
2022/08/16 12:20:48;;;;;;;2.65;0.93;;;30.40;74.00;;;;;;5082322;28;20392;-84
2022/08/16 12:23:14;;;;;;;1.40;0.70;;;29.70;74.60;;;;;;5076358;28;20084;-83
2022/08/16 12:25:40;;;;;;;1.85;0.70;;;29.10;76.40;;;;;;5076669;28;20282;-84
2022/08/16 12:28:08;;;;;;;1.00;0.70;;;28.90;76.60;;;;;;5074648;28;20028;-83
2022/08/16 12:30:39;;;;;;;2.03;1.00;;;29.50;76.40;;;;;;5075298;28;20024;-83
2022/08/16 12:33:08;;;;;;;2.50;1.02;;;30.20;76.20;;;;;;5070743;28;20029;-83
2022/08/16 12:35:35;;;;;;;2.22;0.93;;;30.10;75.50;;;;;;5076998;28;20088;-83
2022/08/16 12:38:02;;;;;;;1.90;0.80;;;30.30;75.30;;;;;;5073989;28;20175;-83
2022/08/16 12:40:36;;;;;;;4.63;1.00;;;30.60;74.50;;;;;;5076438;28;20028;-83
2022/08/16 12:43:05;;;;;;;3.60;0.80;;;31.10;73.80;;;;;;5071963;28;20017;-83
2022/08/16 12:45:35;;;;;;;1.52;0.63;;;31.70;71.80;;;;;;5073670;28;20044;-83
2022/08/16 12:50:46;;;;;;;1.35;0.70;;;31.90;72.10;;;;;;5075011;28;20039;-82